sensor_id;sensor_type;location;lat;lon;timestamp;P1;durP1;ratioP1;P2;durP2;ratioP2
13374;SDS011;6756;51.354;15.754;2022-08-01T00:00:29;6.40;;;5.30;;
13374;SDS011;6756;51.354;15.754;2022-08-01T00:04:30;4.83;;;4.43;;
13374;SDS011;6756;51.354;15.754;2022-08-01T00:08:31;5.10;;;4.70;;
13374;SDS011;6756;51.354;15.754;2022-08-01T00:12:32;4.80;;;4.40;;
13374;SDS011;6756;51.354;15.754;2022-08-01T00:16:33;4.40;;;4.00;;
13374;SDS011;6756;51.354;15.754;2022-08-01T00:20:33;4.90;;;4.50;;
13374;SDS011;6756;51.354;15.754;2022-08-01T00:24:34;4.70;;;4.20;;
13374;SDS011;6756;51.354;15.754;2022-08-01T00:28:35;4.83;;;4.40;;
13374;SDS011;6756;51.354;15.754;2022-08-01T00:32:36;5.97;;;4.47;;
13374;SDS011;6756;51.354;15.754;2022-08-01T00:36:37;4.97;;;4.47;;
13374;SDS011;6756;51.354;15.754;2022-08-01T00:40:38;4.80;;;4.20;;
13374;SDS011;6756;51.354;15.754;2022-08-01T00:44:39;4.70;;;4.30;;
13374;SDS011;6756;51.354;15.754;2022-08-01T00:48:40;4.50;;;4.13;;
13374;SDS011;6756;51.354;15.754;2022-08-01T00:52:41;5.03;;;4.13;;
13374;SDS011;6756;51.354;15.754;2022-08-01T00:56:43;4.73;;;4.33;;
13374;SDS011;6756;51.354;15.754;2022-08-01T01:00:44;6.80;;;4.13;;
13374;SDS011;6756;51.354;15.754;2022-08-01T01:04:44;4.40;;;4.00;;
13374;SDS011;6756;51.354;15.754;2022-08-01T01:08:53;4.57;;;4.10;;
13374;SDS011;6756;51.354;15.754;2022-08-01T01:17:07;6.20;;;3.60;;
13374;SDS011;6756;51.354;15.754;2022-08-01T01:29:52;5.87;;;3.37;;
13374;SDS011;6756;51.354;15.754;2022-08-01T01:33:54;4.20;;;3.63;;
13374;SDS011;6756;51.354;15.754;2022-08-01T01:38:00;3.60;;;3.30;;
13374;SDS011;6756;51.354;15.754;2022-08-01T01:42:04;3.83;;;3.40;;
13374;SDS011;6756;51.354;15.754;2022-08-01T01:46:07;6.20;;;3.70;;
13374;SDS011;6756;51.354;15.754;2022-08-01T01:50:10;3.60;;;3.30;;
13374;SDS011;6756;51.354;15.754;2022-08-01T01:54:12;3.83;;;3.40;;
13374;SDS011;6756;51.354;15.754;2022-08-01T01:58:13;4.10;;;3.80;;
13374;SDS011;6756;51.354;15.754;2022-08-01T02:02:15;3.50;;;3.10;;
13374;SDS011;6756;51.354;15.754;2022-08-01T02:06:17;3.20;;;3.00;;
13374;SDS011;6756;51.354;15.754;2022-08-01T02:10:19;5.40;;;3.30;;
13374;SDS011;6756;51.354;15.754;2022-08-01T02:14:20;5.57;;;3.23;;
13374;SDS011;6756;51.354;15.754;2022-08-01T02:18:22;4.33;;;3.00;;
13374;SDS011;6756;51.354;15.754;2022-08-01T02:26:32;4.50;;;3.60;;
13374;SDS011;6756;51.354;15.754;2022-08-01T02:30:34;3.20;;;2.90;;
13374;SDS011;6756;51.354;15.754;2022-08-01T02:34:36;3.47;;;3.13;;
13374;SDS011;6756;51.354;15.754;2022-08-01T02:38:40;3.53;;;2.90;;
13374;SDS011;6756;51.354;15.754;2022-08-01T02:42:44;4.17;;;3.50;;
13374;SDS011;6756;51.354;15.754;2022-08-01T02:46:50;3.30;;;3.00;;
13374;SDS011;6756;51.354;15.754;2022-08-01T02:50:54;3.90;;;3.10;;
13374;SDS011;6756;51.354;15.754;2022-08-01T02:54:58;3.23;;;2.83;;
13374;SDS011;6756;51.354;15.754;2022-08-01T02:59:04;3.10;;;2.80;;
13374;SDS011;6756;51.354;15.754;2022-08-01T03:03:07;2.90;;;2.70;;
13374;SDS011;6756;51.354;15.754;2022-08-01T03:07:11;3.67;;;3.37;;
13374;SDS011;6756;51.354;15.754;2022-08-01T03:11:13;3.47;;;3.17;;
13374;SDS011;6756;51.354;15.754;2022-08-01T03:15:15;3.70;;;2.77;;
13374;SDS011;6756;51.354;15.754;2022-08-01T03:19:17;4.83;;;3.20;;
13374;SDS011;6756;51.354;15.754;2022-08-01T03:23:20;5.87;;;3.10;;
13374;SDS011;6756;51.354;15.754;2022-08-01T03:27:23;3.63;;;3.30;;
13374;SDS011;6756;51.354;15.754;2022-08-01T03:31:25;4.17;;;3.20;;
13374;SDS011;6756;51.354;15.754;2022-08-01T03:35:29;4.17;;;3.37;;
13374;SDS011;6756;51.354;15.754;2022-08-01T03:39:34;6.23;;;3.23;;
13374;SDS011;6756;51.354;15.754;2022-08-01T03:43:44;3.30;;;3.00;;
13374;SDS011;6756;51.354;15.754;2022-08-01T03:47:48;3.57;;;3.10;;
13374;SDS011;6756;51.354;15.754;2022-08-01T03:51:52;4.00;;;3.50;;
13374;SDS011;6756;51.354;15.754;2022-08-01T03:55:55;3.97;;;3.33;;
13374;SDS011;6756;51.354;15.754;2022-08-01T03:59:59;4.77;;;2.80;;
13374;SDS011;6756;51.354;15.754;2022-08-01T04:04:01;3.67;;;2.90;;
13374;SDS011;6756;51.354;15.754;2022-08-01T04:08:05;3.67;;;2.70;;
13374;SDS011;6756;51.354;15.754;2022-08-01T04:12:06;3.10;;;2.90;;
13374;SDS011;6756;51.354;15.754;2022-08-01T04:16:07;2.93;;;2.63;;
13374;SDS011;6756;51.354;15.754;2022-08-01T04:20:08;2.87;;;2.67;;
13374;SDS011;6756;51.354;15.754;2022-08-01T04:24:12;3.00;;;2.70;;
13374;SDS011;6756;51.354;15.754;2022-08-01T04:28:16;4.60;;;2.90;;
13374;SDS011;6756;51.354;15.754;2022-08-01T04:32:21;3.47;;;2.80;;
13374;SDS011;6756;51.354;15.754;2022-08-01T04:36:23;6.03;;;2.60;;
13374;SDS011;6756;51.354;15.754;2022-08-01T04:40:25;3.90;;;2.80;;
13374;SDS011;6756;51.354;15.754;2022-08-01T04:44:26;3.47;;;2.60;;
13374;SDS011;6756;51.354;15.754;2022-08-01T04:48:28;3.80;;;2.87;;
13374;SDS011;6756;51.354;15.754;2022-08-01T04:52:32;2.80;;;2.40;;
13374;SDS011;6756;51.354;15.754;2022-08-01T04:56:34;4.93;;;3.07;;
13374;SDS011;6756;51.354;15.754;2022-08-01T05:00:35;2.40;;;2.20;;
13374;SDS011;6756;51.354;15.754;2022-08-01T05:04:38;3.10;;;2.33;;
13374;SDS011;6756;51.354;15.754;2022-08-01T05:08:39;2.83;;;2.40;;
13374;SDS011;6756;51.354;15.754;2022-08-01T05:12:41;3.10;;;2.37;;
13374;SDS011;6756;51.354;15.754;2022-08-01T05:16:42;4.97;;;2.50;;
13374;SDS011;6756;51.354;15.754;2022-08-01T05:20:43;2.30;;;2.10;;
13374;SDS011;6756;51.354;15.754;2022-08-01T05:24:43;3.70;;;2.50;;
13374;SDS011;6756;51.354;15.754;2022-08-01T05:28:45;3.03;;;2.20;;
13374;SDS011;6756;51.354;15.754;2022-08-01T05:32:46;3.83;;;2.40;;
13374;SDS011;6756;51.354;15.754;2022-08-01T05:36:47;2.83;;;2.47;;
13374;SDS011;6756;51.354;15.754;2022-08-01T05:40:48;2.63;;;2.43;;
13374;SDS011;6756;51.354;15.754;2022-08-01T05:44:49;3.40;;;2.40;;
13374;SDS011;6756;51.354;15.754;2022-08-01T05:48:50;4.17;;;2.60;;
13374;SDS011;6756;51.354;15.754;2022-08-01T05:52:51;2.97;;;2.60;;
13374;SDS011;6756;51.354;15.754;2022-08-01T05:56:52;3.03;;;2.33;;
13374;SDS011;6756;51.354;15.754;2022-08-01T06:00:53;2.83;;;2.50;;
13374;SDS011;6756;51.354;15.754;2022-08-01T06:04:54;5.03;;;2.60;;
13374;SDS011;6756;51.354;15.754;2022-08-01T06:08:55;3.80;;;2.50;;
13374;SDS011;6756;51.354;15.754;2022-08-01T06:12:56;2.77;;;2.43;;
13374;SDS011;6756;51.354;15.754;2022-08-01T06:16:56;6.13;;;2.60;;
13374;SDS011;6756;51.354;15.754;2022-08-01T06:20:58;3.87;;;2.47;;
13374;SDS011;6756;51.354;15.754;2022-08-01T06:24:59;3.43;;;2.70;;
13374;SDS011;6756;51.354;15.754;2022-08-01T06:28:59;3.03;;;2.63;;
13374;SDS011;6756;51.354;15.754;2022-08-01T06:33:00;3.23;;;2.43;;
13374;SDS011;6756;51.354;15.754;2022-08-01T06:37:01;2.20;;;2.00;;
13374;SDS011;6756;51.354;15.754;2022-08-01T06:41:02;3.17;;;2.50;;
13374;SDS011;6756;51.354;15.754;2022-08-01T06:45:07;3.13;;;2.30;;
13374;SDS011;6756;51.354;15.754;2022-08-01T06:49:09;3.03;;;2.43;;
13374;SDS011;6756;51.354;15.754;2022-08-01T06:53:10;2.70;;;2.43;;
13374;SDS011;6756;51.354;15.754;2022-08-01T06:57:11;5.07;;;2.23;;
13374;SDS011;6756;51.354;15.754;2022-08-01T07:01:12;4.90;;;2.30;;
13374;SDS011;6756;51.354;15.754;2022-08-01T07:05:12;2.90;;;2.50;;
13374;SDS011;6756;51.354;15.754;2022-08-01T07:09:13;2.67;;;2.33;;
13374;SDS011;6756;51.354;15.754;2022-08-01T07:13:14;4.97;;;2.30;;
13374;SDS011;6756;51.354;15.754;2022-08-01T07:17:20;2.27;;;2.07;;
13374;SDS011;6756;51.354;15.754;2022-08-01T07:21:21;2.87;;;2.43;;
13374;SDS011;6756;51.354;15.754;2022-08-01T07:25:21;2.83;;;2.40;;
13374;SDS011;6756;51.354;15.754;2022-08-01T07:29:23;4.97;;;2.23;;
13374;SDS011;6756;51.354;15.754;2022-08-01T07:33:24;2.10;;;1.93;;
13374;SDS011;6756;51.354;15.754;2022-08-01T07:37:25;2.87;;;2.47;;
13374;SDS011;6756;51.354;15.754;2022-08-01T07:41:26;4.07;;;2.30;;
13374;SDS011;6756;51.354;15.754;2022-08-01T07:45:28;2.50;;;2.30;;
13374;SDS011;6756;51.354;15.754;2022-08-01T07:49:29;3.40;;;2.10;;
13374;SDS011;6756;51.354;15.754;2022-08-01T07:53:30;2.63;;;2.23;;
13374;SDS011;6756;51.354;15.754;2022-08-01T07:57:30;3.60;;;1.87;;
13374;SDS011;6756;51.354;15.754;2022-08-01T08:01:31;2.57;;;2.17;;
13374;SDS011;6756;51.354;15.754;2022-08-01T08:05:32;3.73;;;2.50;;
13374;SDS011;6756;51.354;15.754;2022-08-01T08:09:35;2.77;;;2.23;;
13374;SDS011;6756;51.354;15.754;2022-08-01T08:13:35;2.43;;;1.97;;
13374;SDS011;6756;51.354;15.754;2022-08-01T08:17:36;4.30;;;2.27;;
13374;SDS011;6756;51.354;15.754;2022-08-01T08:21:37;3.13;;;2.67;;
13374;SDS011;6756;51.354;15.754;2022-08-01T08:25:39;2.60;;;2.40;;
13374;SDS011;6756;51.354;15.754;2022-08-01T08:29:39;3.40;;;1.97;;
13374;SDS011;6756;51.354;15.754;2022-08-01T08:33:40;2.73;;;1.80;;
13374;SDS011;6756;51.354;15.754;2022-08-01T08:37:41;3.05;;;1.85;;
13374;SDS011;6756;51.354;15.754;2022-08-01T08:41:42;2.90;;;2.00;;
13374;SDS011;6756;51.354;15.754;2022-08-01T08:45:43;4.70;;;2.08;;
13374;SDS011;6756;51.354;15.754;2022-08-01T08:49:47;2.70;;;2.20;;
13374;SDS011;6756;51.354;15.754;2022-08-01T08:53:50;2.30;;;2.10;;
13374;SDS011;6756;51.354;15.754;2022-08-01T08:57:54;3.50;;;2.00;;
13374;SDS011;6756;51.354;15.754;2022-08-01T09:01:56;4.78;;;2.08;;
13374;SDS011;6756;51.354;15.754;2022-08-01T09:05:57;2.58;;;2.03;;
13374;SDS011;6756;51.354;15.754;2022-08-01T09:09:58;3.83;;;1.98;;
13374;SDS011;6756;51.354;15.754;2022-08-01T09:18:28;4.13;;;2.00;;
13374;SDS011;6756;51.354;15.754;2022-08-01T09:22:33;4.45;;;2.42;;
13374;SDS011;6756;51.354;15.754;2022-08-01T09:26:35;3.83;;;2.17;;
13374;SDS011;6756;51.354;15.754;2022-08-01T09:30:37;2.90;;;2.30;;
13374;SDS011;6756;51.354;15.754;2022-08-01T09:34:39;3.28;;;2.42;;
13374;SDS011;6756;51.354;15.754;2022-08-01T09:38:40;2.90;;;2.33;;
13374;SDS011;6756;51.354;15.754;2022-08-01T09:42:41;4.03;;;2.83;;
13374;SDS011;6756;51.354;15.754;2022-08-01T09:46:48;4.80;;;3.00;;
13374;SDS011;6756;51.354;15.754;2022-08-01T09:50:54;2.45;;;2.30;;
13374;SDS011;6756;51.354;15.754;2022-08-01T09:54:59;3.78;;;2.80;;
13374;SDS011;6756;51.354;15.754;2022-08-01T09:59:02;5.30;;;3.30;;
13374;SDS011;6756;51.354;15.754;2022-08-01T10:03:22;3.15;;;2.85;;
13374;SDS011;6756;51.354;15.754;2022-08-01T10:07:25;3.50;;;3.20;;
13374;SDS011;6756;51.354;15.754;2022-08-01T10:11:26;4.00;;;3.10;;
13374;SDS011;6756;51.354;15.754;2022-08-01T10:15:28;2.80;;;2.60;;
13374;SDS011;6756;51.354;15.754;2022-08-01T10:19:30;4.28;;;3.42;;
13374;SDS011;6756;51.354;15.754;2022-08-01T10:23:36;3.17;;;2.55;;
13374;SDS011;6756;51.354;15.754;2022-08-01T10:27:38;6.13;;;2.57;;
13374;SDS011;6756;51.354;15.754;2022-08-01T10:31:42;3.40;;;3.10;;
13374;SDS011;6756;51.354;15.754;2022-08-01T10:35:45;3.03;;;2.83;;
13374;SDS011;6756;51.354;15.754;2022-08-01T10:39:46;2.70;;;2.50;;
13374;SDS011;6756;51.354;15.754;2022-08-01T10:43:47;2.57;;;1.80;;
13374;SDS011;6756;51.354;15.754;2022-08-01T10:47:53;3.45;;;2.22;;
13374;SDS011;6756;51.354;15.754;2022-08-01T10:51:55;2.45;;;2.25;;
13374;SDS011;6756;51.354;15.754;2022-08-01T11:00:00;2.90;;;2.70;;
13374;SDS011;6756;51.354;15.754;2022-08-01T11:08:20;2.50;;;2.30;;
13374;SDS011;6756;51.354;15.754;2022-08-01T11:12:22;3.20;;;2.33;;
13374;SDS011;6756;51.354;15.754;2022-08-01T11:16:39;4.47;;;2.80;;
13374;SDS011;6756;51.354;15.754;2022-08-01T11:20:43;3.23;;;2.60;;
13374;SDS011;6756;51.354;15.754;2022-08-01T11:24:57;2.27;;;2.07;;
13374;SDS011;6756;51.354;15.754;2022-08-01T11:29:15;5.90;;;2.70;;
13374;SDS011;6756;51.354;15.754;2022-08-01T11:33:18;2.63;;;2.00;;
13374;SDS011;6756;51.354;15.754;2022-08-01T11:37:39;2.37;;;2.17;;
13374;SDS011;6756;51.354;15.754;2022-08-01T11:41:40;2.63;;;2.00;;
13374;SDS011;6756;51.354;15.754;2022-08-01T11:45:48;2.92;;;2.08;;
13374;SDS011;6756;51.354;15.754;2022-08-01T11:49:50;2.63;;;1.90;;
13374;SDS011;6756;51.354;15.754;2022-08-01T11:53:54;3.17;;;1.98;;
13374;SDS011;6756;51.354;15.754;2022-08-01T11:58:03;1.80;;;1.70;;
13374;SDS011;6756;51.354;15.754;2022-08-01T12:02:14;2.28;;;1.88;;
13374;SDS011;6756;51.354;15.754;2022-08-01T12:06:26;2.75;;;2.17;;
13374;SDS011;6756;51.354;15.754;2022-08-01T12:10:33;2.67;;;1.75;;
13374;SDS011;6756;51.354;15.754;2022-08-01T12:14:38;2.72;;;1.50;;
13374;SDS011;6756;51.354;15.754;2022-08-01T12:18:40;2.67;;;1.17;;
13374;SDS011;6756;51.354;15.754;2022-08-01T12:22:42;0.80;;;0.80;;
13374;SDS011;6756;51.354;15.754;2022-08-01T12:26:43;1.10;;;0.90;;
13374;SDS011;6756;51.354;15.754;2022-08-01T12:30:46;1.17;;;1.02;;
13374;SDS011;6756;51.354;15.754;2022-08-01T12:34:48;2.67;;;1.33;;
13374;SDS011;6756;51.354;15.754;2022-08-01T12:38:53;2.08;;;0.80;;
13374;SDS011;6756;51.354;15.754;2022-08-01T12:42:55;1.55;;;1.45;;
13374;SDS011;6756;51.354;15.754;2022-08-01T12:46:58;1.13;;;1.02;;
13374;SDS011;6756;51.354;15.754;2022-08-01T12:51:02;1.10;;;1.00;;
13374;SDS011;6756;51.354;15.754;2022-08-01T12:59:18;1.35;;;1.25;;
13374;SDS011;6756;51.354;15.754;2022-08-01T13:03:27;1.20;;;1.10;;
13374;SDS011;6756;51.354;15.754;2022-08-01T13:08:01;1.05;;;1.02;;
13374;SDS011;6756;51.354;15.754;2022-08-01T13:11:55;1.23;;;1.13;;
13374;SDS011;6756;51.354;15.754;2022-08-01T13:16:03;1.88;;;1.42;;
13374;SDS011;6756;51.354;15.754;2022-08-01T13:20:05;1.43;;;1.03;;
13374;SDS011;6756;51.354;15.754;2022-08-01T13:24:10;2.93;;;1.07;;
13374;SDS011;6756;51.354;15.754;2022-08-01T13:28:19;1.60;;;1.20;;
13374;SDS011;6756;51.354;15.754;2022-08-01T13:32:25;1.00;;;0.90;;
13374;SDS011;6756;51.354;15.754;2022-08-01T13:36:26;1.00;;;0.67;;
13374;SDS011;6756;51.354;15.754;2022-08-01T13:40:28;1.30;;;0.73;;
13374;SDS011;6756;51.354;15.754;2022-08-01T13:44:29;0.47;;;0.40;;
13374;SDS011;6756;51.354;15.754;2022-08-01T13:48:30;0.40;;;0.40;;
13374;SDS011;6756;51.354;15.754;2022-08-01T13:52:32;0.40;;;0.30;;
13374;SDS011;6756;51.354;15.754;2022-08-01T13:56:32;0.50;;;0.30;;
13374;SDS011;6756;51.354;15.754;2022-08-01T14:00:33;0.37;;;0.27;;
13374;SDS011;6756;51.354;15.754;2022-08-01T14:04:34;0.53;;;0.20;;
13374;SDS011;6756;51.354;15.754;2022-08-01T14:08:35;0.30;;;0.20;;
13374;SDS011;6756;51.354;15.754;2022-08-01T14:12:36;0.93;;;0.40;;
13374;SDS011;6756;51.354;15.754;2022-08-01T14:16:37;0.73;;;0.40;;
13374;SDS011;6756;51.354;15.754;2022-08-01T14:20:39;1.20;;;0.53;;
13374;SDS011;6756;51.354;15.754;2022-08-01T14:24:40;1.53;;;0.63;;
13374;SDS011;6756;51.354;15.754;2022-08-01T14:28:41;1.80;;;0.50;;
13374;SDS011;6756;51.354;15.754;2022-08-01T14:32:42;2.90;;;0.73;;
13374;SDS011;6756;51.354;15.754;2022-08-01T14:36:43;0.60;;;0.50;;
13374;SDS011;6756;51.354;15.754;2022-08-01T14:40:43;1.53;;;0.60;;
13374;SDS011;6756;51.354;15.754;2022-08-01T14:44:46;0.97;;;0.60;;
13374;SDS011;6756;51.354;15.754;2022-08-01T14:48:47;1.37;;;0.50;;
13374;SDS011;6756;51.354;15.754;2022-08-01T14:52:48;0.87;;;0.77;;
13374;SDS011;6756;51.354;15.754;2022-08-01T14:56:49;0.90;;;0.50;;
13374;SDS011;6756;51.354;15.754;2022-08-01T15:00:52;0.77;;;0.60;;
13374;SDS011;6756;51.354;15.754;2022-08-01T15:04:54;0.50;;;0.50;;
13374;SDS011;6756;51.354;15.754;2022-08-01T15:08:55;1.00;;;0.77;;
13374;SDS011;6756;51.354;15.754;2022-08-01T15:12:55;1.80;;;0.83;;
13374;SDS011;6756;51.354;15.754;2022-08-01T15:16:58;1.30;;;1.00;;
13374;SDS011;6756;51.354;15.754;2022-08-01T15:20:59;1.90;;;1.27;;
13374;SDS011;6756;51.354;15.754;2022-08-01T15:25:00;1.30;;;1.20;;
13374;SDS011;6756;51.354;15.754;2022-08-01T15:29:01;1.43;;;1.30;;
13374;SDS011;6756;51.354;15.754;2022-08-01T15:33:02;2.57;;;1.43;;
13374;SDS011;6756;51.354;15.754;2022-08-01T15:37:03;2.43;;;1.43;;
13374;SDS011;6756;51.354;15.754;2022-08-01T15:41:05;2.33;;;1.60;;
13374;SDS011;6756;51.354;15.754;2022-08-01T15:45:06;1.47;;;1.37;;
13374;SDS011;6756;51.354;15.754;2022-08-01T15:49:07;2.07;;;1.87;;
13374;SDS011;6756;51.354;15.754;2022-08-01T15:53:08;1.70;;;1.60;;
13374;SDS011;6756;51.354;15.754;2022-08-01T15:57:09;1.60;;;1.43;;
13374;SDS011;6756;51.354;15.754;2022-08-01T16:01:10;1.60;;;1.50;;
13374;SDS011;6756;51.354;15.754;2022-08-01T16:05:11;2.17;;;1.47;;
13374;SDS011;6756;51.354;15.754;2022-08-01T16:09:12;1.43;;;1.33;;
13374;SDS011;6756;51.354;15.754;2022-08-01T16:13:12;1.80;;;1.70;;
13374;SDS011;6756;51.354;15.754;2022-08-01T16:17:13;2.20;;;1.60;;
13374;SDS011;6756;51.354;15.754;2022-08-01T16:21:14;1.60;;;1.50;;
13374;SDS011;6756;51.354;15.754;2022-08-01T16:25:15;2.87;;;1.80;;
13374;SDS011;6756;51.354;15.754;2022-08-01T16:29:16;2.33;;;2.00;;
13374;SDS011;6756;51.354;15.754;2022-08-01T16:33:17;2.37;;;1.97;;
13374;SDS011;6756;51.354;15.754;2022-08-01T16:37:18;2.80;;;1.80;;
13374;SDS011;6756;51.354;15.754;2022-08-01T16:41:19;1.83;;;1.73;;
13374;SDS011;6756;51.354;15.754;2022-08-01T16:45:20;2.20;;;1.90;;
13374;SDS011;6756;51.354;15.754;2022-08-01T16:49:20;2.40;;;2.20;;
13374;SDS011;6756;51.354;15.754;2022-08-01T16:53:22;2.37;;;2.17;;
13374;SDS011;6756;51.354;15.754;2022-08-01T16:57:23;2.30;;;1.70;;
13374;SDS011;6756;51.354;15.754;2022-08-01T17:01:24;2.47;;;1.90;;
13374;SDS011;6756;51.354;15.754;2022-08-01T17:05:26;2.47;;;2.00;;
13374;SDS011;6756;51.354;15.754;2022-08-01T17:09:27;3.33;;;1.77;;
13374;SDS011;6756;51.354;15.754;2022-08-01T17:13:28;2.77;;;1.97;;
13374;SDS011;6756;51.354;15.754;2022-08-01T17:17:29;2.20;;;2.00;;
13374;SDS011;6756;51.354;15.754;2022-08-01T17:21:30;2.50;;;2.10;;
13374;SDS011;6756;51.354;15.754;2022-08-01T17:25:31;2.40;;;2.20;;
13374;SDS011;6756;51.354;15.754;2022-08-01T17:29:32;2.13;;;1.93;;
13374;SDS011;6756;51.354;15.754;2022-08-01T17:33:33;2.03;;;1.93;;
13374;SDS011;6756;51.354;15.754;2022-08-01T17:37:34;2.00;;;1.80;;
13374;SDS011;6756;51.354;15.754;2022-08-01T17:41:35;2.30;;;2.10;;
13374;SDS011;6756;51.354;15.754;2022-08-01T17:45:36;2.10;;;1.90;;
13374;SDS011;6756;51.354;15.754;2022-08-01T17:49:37;2.23;;;2.03;;
13374;SDS011;6756;51.354;15.754;2022-08-01T17:53:38;2.20;;;2.00;;
13374;SDS011;6756;51.354;15.754;2022-08-01T17:57:39;2.13;;;2.00;;
13374;SDS011;6756;51.354;15.754;2022-08-01T18:01:40;2.20;;;2.00;;
13374;SDS011;6756;51.354;15.754;2022-08-01T18:05:41;2.60;;;2.40;;
13374;SDS011;6756;51.354;15.754;2022-08-01T18:09:41;2.23;;;2.03;;
13374;SDS011;6756;51.354;15.754;2022-08-01T18:13:42;3.10;;;1.80;;
13374;SDS011;6756;51.354;15.754;2022-08-01T18:17:43;3.73;;;2.47;;
13374;SDS011;6756;51.354;15.754;2022-08-01T18:21:44;3.30;;;2.23;;
13374;SDS011;6756;51.354;15.754;2022-08-01T18:25:49;2.70;;;1.80;;
13374;SDS011;6756;51.354;15.754;2022-08-01T18:29:50;2.73;;;1.80;;
13374;SDS011;6756;51.354;15.754;2022-08-01T18:33:51;2.10;;;1.90;;
13374;SDS011;6756;51.354;15.754;2022-08-01T18:37:52;1.87;;;1.77;;
13374;SDS011;6756;51.354;15.754;2022-08-01T18:41:53;2.43;;;2.17;;
13374;SDS011;6756;51.354;15.754;2022-08-01T18:45:56;2.23;;;2.03;;
13374;SDS011;6756;51.354;15.754;2022-08-01T18:49:57;3.87;;;2.50;;
13374;SDS011;6756;51.354;15.754;2022-08-01T18:53:58;2.40;;;2.20;;
13374;SDS011;6756;51.354;15.754;2022-08-01T18:58:00;3.07;;;2.03;;
13374;SDS011;6756;51.354;15.754;2022-08-01T19:02:01;2.30;;;1.97;;
13374;SDS011;6756;51.354;15.754;2022-08-01T19:06:02;2.10;;;1.90;;
13374;SDS011;6756;51.354;15.754;2022-08-01T19:10:03;2.43;;;2.00;;
13374;SDS011;6756;51.354;15.754;2022-08-01T19:14:04;2.03;;;1.67;;
13374;SDS011;6756;51.354;15.754;2022-08-01T19:18:08;2.00;;;1.70;;
13374;SDS011;6756;51.354;15.754;2022-08-01T19:22:09;2.10;;;1.60;;
13374;SDS011;6756;51.354;15.754;2022-08-01T19:26:11;2.03;;;1.80;;
13374;SDS011;6756;51.354;15.754;2022-08-01T19:30:16;1.83;;;1.73;;
13374;SDS011;6756;51.354;15.754;2022-08-01T19:34:18;1.97;;;1.60;;
13374;SDS011;6756;51.354;15.754;2022-08-01T19:38:24;2.90;;;1.60;;
13374;SDS011;6756;51.354;15.754;2022-08-01T19:42:27;1.90;;;1.70;;
13374;SDS011;6756;51.354;15.754;2022-08-01T19:46:29;1.77;;;1.67;;
13374;SDS011;6756;51.354;15.754;2022-08-01T19:50:31;1.63;;;1.53;;
13374;SDS011;6756;51.354;15.754;2022-08-01T19:54:33;2.67;;;2.13;;
13374;SDS011;6756;51.354;15.754;2022-08-01T19:58:40;3.70;;;3.40;;
13374;SDS011;6756;51.354;15.754;2022-08-01T20:02:42;5.33;;;4.07;;
13374;SDS011;6756;51.354;15.754;2022-08-01T20:06:45;3.27;;;2.97;;
13374;SDS011;6756;51.354;15.754;2022-08-01T20:11:07;2.30;;;2.10;;
13374;SDS011;6756;51.354;15.754;2022-08-01T20:15:14;2.67;;;1.77;;
13374;SDS011;6756;51.354;15.754;2022-08-01T20:19:16;1.60;;;1.50;;
13374;SDS011;6756;51.354;15.754;2022-08-01T20:23:18;2.13;;;1.93;;
13374;SDS011;6756;51.354;15.754;2022-08-01T20:27:23;2.20;;;1.60;;
13374;SDS011;6756;51.354;15.754;2022-08-01T20:31:26;1.50;;;1.40;;
13374;SDS011;6756;51.354;15.754;2022-08-01T20:35:28;2.10;;;1.90;;
13374;SDS011;6756;51.354;15.754;2022-08-01T20:39:31;1.50;;;1.40;;
13374;SDS011;6756;51.354;15.754;2022-08-01T20:43:33;1.70;;;1.60;;
13374;SDS011;6756;51.354;15.754;2022-08-01T20:47:38;1.63;;;1.53;;
13374;SDS011;6756;51.354;15.754;2022-08-01T20:51:39;2.20;;;2.00;;
13374;SDS011;6756;51.354;15.754;2022-08-01T20:55:44;2.00;;;1.80;;
13374;SDS011;6756;51.354;15.754;2022-08-01T20:59:57;1.67;;;1.57;;
13374;SDS011;6756;51.354;15.754;2022-08-01T21:04:16;3.33;;;1.90;;
13374;SDS011;6756;51.354;15.754;2022-08-01T21:08:30;2.00;;;1.90;;
13374;SDS011;6756;51.354;15.754;2022-08-01T21:12:36;1.73;;;1.60;;
13374;SDS011;6756;51.354;15.754;2022-08-01T21:16:45;2.03;;;1.93;;
13374;SDS011;6756;51.354;15.754;2022-08-01T21:20:58;2.10;;;1.90;;
13374;SDS011;6756;51.354;15.754;2022-08-01T21:25:05;1.90;;;1.80;;
13374;SDS011;6756;51.354;15.754;2022-08-01T21:29:08;1.93;;;1.73;;
13374;SDS011;6756;51.354;15.754;2022-08-01T21:33:10;2.63;;;1.90;;
13374;SDS011;6756;51.354;15.754;2022-08-01T21:37:13;1.77;;;1.67;;
13374;SDS011;6756;51.354;15.754;2022-08-01T21:41:16;1.80;;;1.70;;
13374;SDS011;6756;51.354;15.754;2022-08-01T21:45:21;1.83;;;1.67;;
13374;SDS011;6756;51.354;15.754;2022-08-01T21:49:24;1.80;;;1.70;;
13374;SDS011;6756;51.354;15.754;2022-08-01T22:02:08;2.60;;;2.40;;
13374;SDS011;6756;51.354;15.754;2022-08-01T22:06:15;2.40;;;2.20;;
13374;SDS011;6756;51.354;15.754;2022-08-01T22:10:18;3.13;;;2.23;;
13374;SDS011;6756;51.354;15.754;2022-08-01T22:14:19;2.10;;;2.00;;
13374;SDS011;6756;51.354;15.754;2022-08-01T22:18:24;2.30;;;2.10;;
13374;SDS011;6756;51.354;15.754;2022-08-01T22:22:30;2.33;;;2.13;;
13374;SDS011;6756;51.354;15.754;2022-08-01T22:26:34;2.60;;;2.40;;
13374;SDS011;6756;51.354;15.754;2022-08-01T22:30:38;2.40;;;2.20;;
13374;SDS011;6756;51.354;15.754;2022-08-01T22:34:41;2.50;;;2.30;;
13374;SDS011;6756;51.354;15.754;2022-08-01T22:38:42;2.20;;;2.00;;
13374;SDS011;6756;51.354;15.754;2022-08-01T22:42:54;2.43;;;2.23;;
13374;SDS011;6756;51.354;15.754;2022-08-01T22:47:06;2.47;;;2.20;;
13374;SDS011;6756;51.354;15.754;2022-08-01T22:51:23;2.30;;;2.10;;
13374;SDS011;6756;51.354;15.754;2022-08-01T22:55:34;2.73;;;2.27;;
13374;SDS011;6756;51.354;15.754;2022-08-01T22:59:40;2.97;;;2.77;;
13374;SDS011;6756;51.354;15.754;2022-08-01T23:03:59;3.23;;;2.93;;
13374;SDS011;6756;51.354;15.754;2022-08-01T23:08:04;3.23;;;2.93;;
13374;SDS011;6756;51.354;15.754;2022-08-01T23:12:06;4.20;;;3.10;;
13374;SDS011;6756;51.354;15.754;2022-08-01T23:16:08;3.30;;;3.00;;
13374;SDS011;6756;51.354;15.754;2022-08-01T23:20:10;2.80;;;2.60;;
13374;SDS011;6756;51.354;15.754;2022-08-01T23:24:11;3.37;;;2.87;;
13374;SDS011;6756;51.354;15.754;2022-08-01T23:28:14;3.13;;;2.87;;
13374;SDS011;6756;51.354;15.754;2022-08-01T23:32:15;2.60;;;2.40;;
13374;SDS011;6756;51.354;15.754;2022-08-01T23:36:21;4.33;;;2.03;;
13374;SDS011;6756;51.354;15.754;2022-08-01T23:40:22;3.17;;;2.87;;
13374;SDS011;6756;51.354;15.754;2022-08-01T23:44:23;3.40;;;3.10;;
13374;SDS011;6756;51.354;15.754;2022-08-01T23:48:24;2.80;;;2.60;;
13374;SDS011;6756;51.354;15.754;2022-08-01T23:52:25;3.30;;;3.00;;
13374;SDS011;6756;51.354;15.754;2022-08-01T23:56:29;3.60;;;2.73;;
